首页
METAR-TAF:

METAR-TAF

机场 :

Port Isabel-Cameron County Airport

Port Isabel, 得克萨斯州, 美国

纬度: 26-09-33N, 经度: 097-20-15W, 海拔: 5米

当前天气观测

该预报发布于19分钟前的20:08 UTC
风速18节,风向,有时为25节阵风
温度 34°C
湿度 63%
气压 1005 hPa
能見度: 11.3公里
阴天层高于3000英尺

METAR: KPIL 262008Z AUTO 17018G25KT 7SM OVC030 34/26 A2969 RMK AO2 T03440261

时间: 15:27 (20:27 UTC)


TAF: 丢失

超过4000个机场的气象观测和天气预报(METAR&TAF报告)。

可查询的气象台以黄色和红色小点在地图上表示。

将鼠标移到小点上方,可查看气象台名称。

然后点击查看天气观测和预报。

如需切换地图:点击带黑十字的绿色按钮放大地图;点击带横线的绿色按钮缩小地图;或者点击绿色箭头查看邻近地区的地图。


METAR-TAF: